YCDU

Details ICAO YCDU (CED)
Name Ceduna
Region Australia
Timezone Australia/Adelaide (UTC+10.5)
Plans Departing 10
Arriving 18
Stats Elevation 77 ft / 23 m (AMSL)
Location -32.130596° 133.709774°
Runways 2
Magnetic Variation 5.480° E
Sunrise 2017-12-11 19:53:40 UTC / 2017-12-12 06:23:40 Local
Sunset 2017-12-12 10:06:38 UTC / 2017-12-12 20:36:38 Local
Advertisement - Login to hide

Runways

ID Width Length Bearing (true) Bearing (mag) Surface Threshold Offset Overrun Length
11 98 ft / 30 m 5,701 ft / 1,738 m 110.90° 105.42° Asphalt 0 ft / 0 m 0 ft / 0 m
17 112 ft / 34 m 3,823 ft / 1,165 m 173.40° 167.92° Unknown 0 ft / 0 m 0 ft / 0 m
29 98 ft / 30 m 5,701 ft / 1,738 m 290.90° 285.42° Asphalt 0 ft / 0 m 0 ft / 0 m
35 112 ft / 34 m 3,823 ft / 1,165 m 353.40° 347.92° Unknown 0 ft / 0 m 0 ft / 0 m

Map

Weather


0- 5 10 15 20 25 30 35+ Temperature / ° C

Clouds and Precipitation
Forecast for 2017-12-12 00:00 UTC. Updated a few seconds ago

Ground ~20,000 ft ~40,000 ft Winds

METAR

YCDU 112300Z AUTO 03017KT 9999 // NCD 33/05 Q1012

TAF

Not found

Frequencies

Unicom 122.40 MHz ACTIVATE LIGHTS ONLY MULT
Unicom 122.10 MHz MELBOURNE CENTRE MULT
Unicom 126.70 MHz CEDUNA MULT
Warning: Do not use this data for real-world aviation or navigation. No guarantee of current accuracy is given.